createdAt,value
2018-09-08T00:02:32.324Z,20.67
2018-09-08T00:05:05.302Z,23.22
2018-09-08T00:07:39.123Z,22.47
2018-09-08T00:10:12.823Z,22.07
2018-09-08T00:12:45.504Z,22.20
2018-09-08T00:15:22.872Z,23.00
2018-09-08T00:18:00.145Z,22.97
2018-09-08T00:20:37.392Z,24.70
2018-09-08T00:23:14.415Z,25.07
2018-09-08T00:25:51.324Z,23.57
2018-09-08T00:28:35.187Z,23.13
2018-09-08T00:31:12.162Z,22.37
2018-09-08T00:33:48.056Z,24.90
2018-09-08T00:36:20.929Z,23.07
2018-09-08T00:38:55.029Z,22.50
2018-09-08T00:41:27.914Z,21.53
2018-09-08T00:44:01.448Z,23.53
2018-09-08T00:46:34.376Z,22.50
2018-09-08T00:49:08.286Z,25.75
2018-09-08T00:51:41.063Z,23.40
2018-09-08T00:54:13.690Z,26.23
2018-09-08T00:56:46.746Z,25.63
2018-09-08T00:59:19.746Z,22.67
2018-09-08T01:01:52.533Z,24.50
2018-09-08T01:04:28.191Z,21.60
2018-09-08T01:07:01.218Z,20.00
2018-09-08T01:09:35.616Z,17.87
2018-09-08T01:12:08.471Z,20.23
2018-09-08T01:14:41.853Z,21.70
2018-09-08T01:17:15.580Z,17.80
2018-09-08T01:19:48.433Z,17.20
2018-09-08T01:22:24.799Z,17.73
2018-09-08T01:24:58.304Z,18.47
2018-09-08T01:27:31.363Z,18.33
2018-09-08T01:30:06.455Z,20.10
2018-09-08T01:32:39.127Z,21.03
2018-09-08T01:35:12.609Z,18.73
2018-09-08T01:37:46.040Z,18.77
2018-09-08T01:40:19.157Z,19.97
2018-09-08T01:42:53.128Z,21.45
2018-09-08T01:45:29.530Z,21.77
2018-09-08T01:48:03.327Z,25.73
2018-09-08T01:50:40.258Z,23.50
2018-09-08T01:53:14.762Z,16.83
2018-09-08T01:55:48.371Z,17.33
2018-09-08T01:58:23.729Z,10.30
2018-09-08T02:00:58.467Z,8.40
2018-09-08T02:03:31.367Z,7.37
2018-09-08T02:06:07.171Z,6.23
2018-09-08T02:11:24.620Z,8.07
2018-09-08T02:14:01.232Z,7.87
2018-09-08T02:16:34.780Z,9.83
2018-09-08T02:19:07.942Z,7.60
2018-09-08T02:21:40.776Z,10.00
2018-09-08T02:24:14.287Z,8.07
2018-09-08T02:26:51.550Z,8.97
2018-09-08T02:29:26.374Z,8.67
2018-09-08T02:31:59.735Z,11.57
2018-09-08T02:34:33.779Z,9.67
2018-09-08T02:37:07.768Z,9.50
2018-09-08T02:39:41.237Z,8.57
2018-09-08T02:42:14.453Z,10.27
2018-09-08T02:44:47.506Z,13.93
2018-09-08T02:47:20.925Z,12.37
2018-09-08T02:50:04.282Z,17.53
2018-09-08T02:52:34.690Z,25.92
2018-09-08T02:55:04.467Z,19.97
2018-09-08T02:57:34.472Z,14.33
2018-09-08T03:00:05.820Z,12.93
2018-09-08T03:02:38.056Z,11.97
2018-09-08T03:05:11.403Z,10.37
2018-09-08T03:07:41.709Z,8.80
2018-09-08T03:10:12.929Z,9.90
2018-09-08T03:12:46.167Z,10.27
2018-09-08T03:15:16.557Z,10.60
2018-09-08T03:17:46.350Z,14.90
2018-09-08T03:20:16.559Z,13.07
2018-09-08T03:25:29.418Z,33.70
2018-09-08T03:27:59.990Z,19.50
2018-09-08T03:30:30.127Z,12.23
2018-09-08T03:33:01.462Z,12.43
2018-09-08T03:35:33.271Z,11.57
2018-09-08T03:38:04.608Z,12.43
2018-09-08T03:40:34.964Z,8.50
2018-09-08T03:45:39.845Z,12.50
2018-09-08T03:48:13.839Z,26.13
2018-09-08T03:50:45.920Z,24.00
2018-09-08T03:53:16.402Z,17.17
2018-09-08T03:55:47.563Z,11.80
2018-09-08T03:58:19.188Z,9.20
2018-09-08T04:00:49.763Z,9.38
2018-09-08T04:03:24.836Z,8.90
2018-09-08T04:05:59.513Z,7.40
2018-09-08T04:08:34.029Z,6.50
2018-09-08T04:13:46.343Z,5.90
2018-09-08T04:16:19.511Z,6.43
2018-09-08T04:18:53.834Z,11.00
2018-09-08T04:21:27.036Z,13.77
2018-09-08T04:24:00.321Z,11.67
2018-09-08T04:26:33.358Z,10.17
2018-09-08T04:29:06.527Z,7.63
2018-09-08T04:31:39.590Z,4.70
2018-09-08T04:34:15.475Z,5.70
2018-09-08T04:36:48.534Z,6.23
2018-09-08T04:39:21.386Z,6.03
2018-09-08T04:41:54.432Z,5.50
2018-09-08T04:44:27.202Z,5.57
2018-09-08T04:47:00.071Z,4.95
2018-09-08T04:49:33.064Z,4.80
2018-09-08T04:52:05.999Z,5.50
2018-09-08T04:54:39.163Z,6.03
2018-09-08T04:57:12.379Z,4.80
2018-09-08T04:59:45.445Z,5.40
2018-09-08T05:02:18.314Z,5.93
2018-09-08T05:04:51.266Z,6.13
2018-09-08T05:07:24.007Z,7.77
2018-09-08T05:09:56.864Z,12.15
2018-09-08T05:12:30.054Z,22.93
2018-09-08T05:15:03.317Z,44.40
2018-09-08T05:17:36.106Z,49.93
2018-09-08T05:20:10.772Z,34.97
2018-09-08T05:22:43.645Z,29.63
2018-09-08T05:25:16.779Z,44.93
2018-09-08T05:27:49.487Z,49.10
2018-09-08T05:30:22.818Z,67.77
2018-09-08T05:32:55.580Z,40.43
2018-09-08T05:35:28.312Z,35.23
2018-09-08T05:38:01.300Z,21.73
2018-09-08T05:40:34.103Z,14.35
2018-09-08T05:43:06.813Z,9.40
2018-09-08T05:45:39.703Z,11.77
2018-09-08T05:48:12.467Z,23.60
2018-09-08T05:50:45.014Z,44.00
2018-09-08T05:53:17.666Z,65.90
2018-09-08T05:55:50.286Z,59.27
2018-09-08T05:58:23.051Z,45.23
2018-09-08T06:00:55.859Z,34.77
2018-09-08T06:03:28.551Z,29.37
2018-09-08T06:06:01.373Z,26.33
2018-09-08T06:08:34.152Z,28.77
2018-09-08T06:11:06.884Z,31.45
2018-09-08T06:13:39.867Z,44.33
2018-09-08T06:16:12.642Z,50.63
2018-09-08T06:18:45.452Z,44.37
2018-09-08T06:21:18.323Z,42.67
2018-09-08T06:23:52.387Z,40.97
2018-09-08T06:26:25.025Z,34.40
2018-09-08T06:28:57.823Z,29.10
2018-09-08T06:31:30.649Z,20.73
2018-09-08T06:34:03.131Z,14.27
2018-09-08T06:36:35.998Z,13.43
2018-09-08T06:39:12.284Z,9.93
2018-09-08T06:41:45.746Z,10.35
2018-09-08T06:44:18.597Z,10.13
2018-09-08T06:46:51.264Z,9.10
2018-09-08T06:49:23.899Z,7.13
2018-09-08T06:51:56.651Z,6.90
2018-09-08T06:54:29.370Z,6.33
2018-09-08T06:57:02.111Z,7.00
2018-09-08T06:59:34.778Z,6.90
2018-09-08T07:02:07.516Z,6.77
2018-09-08T07:04:40.145Z,6.57
2018-09-08T07:07:14.162Z,7.10
2018-09-08T07:09:46.900Z,5.97
2018-09-08T07:12:19.758Z,6.27
2018-09-08T07:14:52.382Z,5.70
2018-09-08T07:17:25.031Z,6.30
2018-09-08T07:19:57.832Z,7.53
2018-09-08T07:22:30.529Z,6.90
2018-09-08T07:25:03.496Z,7.03
2018-09-08T07:27:36.184Z,7.25
2018-09-08T07:30:08.904Z,7.57
2018-09-08T07:32:41.802Z,7.27
2018-09-08T07:35:14.517Z,8.53
2018-09-08T07:37:47.000Z,7.67
2018-09-08T07:40:19.826Z,7.37
2018-09-08T07:42:52.513Z,7.77
2018-09-08T07:45:25.064Z,7.87
2018-09-08T07:47:57.867Z,7.73
2018-09-08T07:50:30.666Z,7.80
2018-09-08T07:53:03.296Z,6.93
2018-09-08T07:55:36.220Z,7.10
2018-09-08T07:58:08.962Z,7.40
2018-09-08T08:00:41.826Z,7.80
2018-09-08T08:03:14.621Z,7.97
2018-09-08T08:05:47.247Z,7.23
2018-09-08T08:08:20.036Z,6.50
2018-09-08T08:10:52.742Z,7.60
2018-09-08T08:13:25.349Z,7.93
2018-09-08T08:15:58.331Z,7.50
2018-09-08T08:18:31.029Z,6.30
2018-09-08T08:21:03.776Z,6.00
2018-09-08T08:23:36.690Z,6.92
2018-09-08T08:26:09.557Z,6.63
2018-09-08T08:28:42.664Z,5.97
2018-09-08T08:31:15.387Z,5.80
2018-09-08T08:33:48.135Z,18.27
2018-09-08T08:36:21.050Z,38.70
2018-09-08T08:38:53.788Z,22.57
2018-09-08T08:41:26.549Z,11.37
2018-09-08T08:43:59.262Z,15.10
2018-09-08T08:46:32.040Z,21.75
2018-09-08T08:49:05.192Z,11.30
2018-09-08T08:51:47.446Z,13.33
2018-09-08T08:54:23.971Z,10.30
2018-09-08T08:56:56.842Z,8.27
2018-09-08T08:59:29.939Z,9.80
2018-09-08T09:02:02.740Z,9.63
2018-09-08T09:04:35.352Z,8.83
2018-09-08T09:07:08.696Z,9.27
2018-09-08T09:09:41.414Z,8.50
2018-09-08T09:12:14.314Z,9.50
2018-09-08T09:14:46.969Z,9.20
2018-09-08T09:17:19.893Z,9.83
2018-09-08T09:20:01.878Z,9.43
2018-09-08T09:22:43.821Z,9.43
2018-09-08T09:25:16.630Z,8.33
2018-09-08T09:27:50.887Z,7.93
2018-09-08T09:30:25.293Z,9.65
2018-09-08T09:32:57.956Z,10.03
2018-09-08T09:35:30.854Z,7.97
2018-09-08T09:38:03.563Z,9.20
2018-09-08T09:40:36.332Z,10.98
2018-09-08T09:43:09.257Z,10.97
2018-09-08T09:45:42.017Z,12.57
2018-09-08T09:48:14.837Z,14.58
2018-09-08T09:50:47.736Z,17.67
2018-09-08T09:53:20.526Z,16.97
2018-09-08T09:55:53.142Z,15.70
2018-09-08T09:58:26.034Z,11.60
2018-09-08T10:01:03.098Z,10.17
2018-09-08T10:03:35.871Z,9.90
2018-09-08T10:06:08.487Z,8.50
2018-09-08T10:08:41.446Z,9.00
2018-09-08T10:11:14.178Z,9.77
2018-09-08T10:13:47.237Z,10.40
2018-09-08T10:16:19.950Z,10.73
2018-09-08T10:18:53.303Z,8.17
2018-09-08T10:21:25.839Z,8.83
2018-09-08T10:24:05.152Z,10.77
2018-09-08T10:26:31.483Z,8.50
2018-09-08T10:29:04.294Z,9.27
2018-09-08T10:31:37.818Z,8.30
2018-09-08T10:34:10.827Z,7.90
2018-09-08T10:36:43.501Z,11.03
2018-09-08T10:39:16.248Z,9.00
2018-09-08T10:41:48.977Z,8.70
2018-09-08T10:44:21.899Z,14.70
2018-09-08T10:46:54.694Z,10.45
2018-09-08T10:49:29.252Z,12.10
2018-09-08T10:53:08.227Z,11.47
2018-09-08T10:55:42.442Z,10.40
2018-09-08T10:58:16.194Z,10.47
2018-09-08T11:00:53.264Z,10.65
2018-09-08T11:03:26.936Z,14.10
2018-09-08T11:06:00.866Z,12.43
2018-09-08T11:08:35.209Z,9.90
2018-09-08T11:11:09.199Z,11.47
2018-09-08T11:13:42.837Z,19.50
2018-09-08T11:16:16.269Z,28.33
2018-09-08T11:18:50.254Z,57.27
2018-09-08T11:21:24.165Z,128.10
2018-09-08T11:23:58.400Z,163.90
2018-09-08T11:26:32.487Z,186.83
2018-09-08T11:29:05.715Z,144.63
2018-09-08T11:31:38.527Z,125.53
2018-09-08T11:34:12.638Z,112.73
2018-09-08T11:36:45.483Z,92.43
2018-09-08T11:39:18.341Z,93.30
2018-09-08T11:41:51.947Z,82.95
2018-09-08T11:44:24.719Z,64.80
2018-09-08T11:46:57.469Z,66.90
2018-09-08T11:49:30.290Z,81.90
2018-09-08T11:52:02.946Z,50.70
2018-09-08T11:54:35.725Z,50.93
2018-09-08T11:57:08.384Z,50.83
2018-09-08T11:59:40.975Z,46.43
2018-09-08T12:02:14.056Z,47.53
2018-09-08T12:04:51.015Z,33.47
2018-09-08T12:07:31.557Z,29.00
2018-09-08T12:10:04.495Z,42.67
2018-09-08T12:12:37.842Z,42.03
2018-09-08T12:15:11.001Z,48.40
2018-09-08T12:17:43.922Z,38.83
2018-09-08T12:20:16.781Z,46.53
2018-09-08T12:22:56.399Z,36.57
2018-09-08T12:25:36.714Z,34.13
2018-09-08T12:28:14.696Z,34.87
2018-09-08T12:30:49.876Z,41.00
2018-09-08T12:33:25.670Z,27.90
2018-09-08T12:35:58.578Z,34.50
2018-09-08T12:38:31.683Z,26.03
2018-09-08T12:41:04.514Z,29.35
2018-09-08T12:43:37.692Z,38.10
2018-09-08T12:46:18.437Z,28.33
2018-09-08T12:48:51.069Z,17.10
2018-09-08T12:51:24.939Z,17.83
2018-09-08T12:53:57.868Z,19.90
2018-09-08T12:56:37.599Z,14.73
2018-09-08T12:59:11.971Z,19.87
2018-09-08T13:01:54.730Z,12.87
2018-09-08T13:04:37.653Z,11.97
2018-09-08T13:07:22.132Z,10.33
2018-09-08T13:10:00.515Z,16.43
2018-09-08T13:12:34.524Z,10.50
2018-09-08T13:15:19.197Z,9.53
2018-09-08T13:18:03.036Z,22.33
2018-09-08T13:20:47.726Z,24.10
2018-09-08T13:23:20.491Z,12.37
2018-09-08T13:25:55.545Z,12.30
2018-09-08T13:28:28.383Z,17.90
2018-09-08T13:31:01.132Z,14.90
2018-09-08T13:33:34.020Z,17.63
2018-09-08T13:36:06.820Z,15.97
2018-09-08T13:38:39.757Z,14.83
2018-09-08T13:41:16.371Z,18.27
2018-09-08T13:43:49.082Z,18.27
2018-09-08T13:46:21.839Z,13.67
2018-09-08T13:48:54.746Z,26.23
2018-09-08T13:51:27.657Z,13.30
2018-09-08T13:54:00.546Z,19.13
2018-09-08T13:56:33.522Z,10.03
2018-09-08T13:59:06.246Z,19.43
2018-09-08T14:01:38.868Z,9.30
2018-09-08T14:04:11.710Z,10.53
2018-09-08T14:06:44.374Z,13.07
2018-09-08T14:09:16.965Z,17.67
2018-09-08T14:11:49.792Z,18.52
2018-09-08T14:14:23.311Z,10.63
2018-09-08T14:16:56.026Z,10.77
2018-09-08T14:19:28.716Z,11.77
2018-09-08T14:22:02.429Z,10.07
2018-09-08T14:24:35.343Z,7.97
2018-09-08T14:27:10.123Z,7.23
2018-09-08T14:29:42.841Z,19.93
2018-09-08T14:32:15.603Z,13.30
2018-09-08T14:34:48.429Z,15.03
2018-09-08T14:37:22.263Z,14.90
2018-09-08T14:40:07.045Z,8.48
2018-09-08T14:42:41.138Z,9.13
2018-09-08T14:45:18.873Z,6.70
2018-09-08T14:47:55.694Z,7.20
2018-09-08T14:50:34.897Z,7.90
2018-09-08T14:53:11.343Z,5.53
2018-09-08T14:55:49.905Z,4.87
2018-09-08T14:58:25.204Z,5.80
2018-09-08T15:01:01.975Z,11.30
2018-09-08T15:03:34.932Z,6.50
2018-09-08T15:06:08.743Z,8.70
2018-09-08T15:08:41.672Z,6.50
2018-09-08T15:11:14.481Z,5.90
2018-09-08T15:13:47.255Z,8.90
2018-09-08T15:16:20.164Z,13.33
2018-09-08T15:18:52.945Z,8.08
2018-09-08T15:21:25.559Z,6.60
2018-09-08T15:23:59.104Z,5.90
2018-09-08T15:26:32.476Z,7.07
2018-09-08T15:29:05.553Z,6.65
2018-09-08T15:31:38.366Z,4.73
2018-09-08T15:34:11.165Z,5.10
2018-09-08T15:36:44.100Z,6.27
2018-09-08T15:39:17.069Z,5.30
2018-09-08T15:41:49.654Z,5.40
2018-09-08T15:47:17.008Z,4.40
2018-09-08T15:49:50.439Z,6.65
2018-09-08T15:52:23.778Z,7.47
2018-09-08T15:54:56.877Z,9.20
2018-09-08T15:57:29.872Z,5.00
2018-09-08T16:00:02.666Z,4.97
2018-09-08T16:02:36.254Z,6.17
2018-09-08T16:05:09.197Z,6.70
2018-09-08T16:07:43.272Z,6.27
2018-09-08T16:10:16.664Z,13.30
2018-09-08T16:12:49.795Z,6.33
2018-09-08T16:15:22.902Z,7.40
2018-09-08T16:17:56.093Z,5.20
2018-09-08T16:21:57.847Z,6.10
2018-09-08T16:24:31.055Z,6.47
2018-09-08T16:27:04.286Z,8.10
2018-09-08T16:29:37.316Z,5.90
2018-09-08T16:32:10.328Z,5.50
2018-09-08T16:34:43.504Z,4.80
2018-09-08T16:37:16.749Z,4.20
2018-09-08T16:39:50.461Z,9.03
2018-09-08T16:42:23.717Z,5.00
2018-09-08T16:44:56.840Z,5.50
2018-09-08T16:47:30.556Z,4.17
2018-09-08T16:50:03.734Z,4.63
2018-09-08T16:52:37.048Z,7.90
2018-09-08T16:55:10.144Z,7.95
2018-09-08T16:57:43.769Z,5.80
2018-09-08T17:00:18.368Z,8.57
2018-09-08T17:02:51.960Z,4.40
2018-09-08T17:05:25.319Z,10.55
2018-09-08T17:07:58.843Z,7.37
2018-09-08T17:10:32.176Z,9.07
2018-09-08T17:13:05.167Z,6.22
2018-09-08T17:15:38.366Z,7.53
2018-09-08T17:18:11.397Z,7.13
2018-09-08T17:20:45.314Z,6.00
2018-09-08T17:23:18.441Z,9.13
2018-09-08T17:25:51.444Z,9.00
2018-09-08T17:28:24.939Z,8.63
2018-09-08T17:30:58.209Z,8.73
2018-09-08T17:33:31.599Z,8.87
2018-09-08T17:36:04.942Z,10.53
2018-09-08T17:38:38.453Z,8.03
2018-09-08T17:41:11.886Z,10.10
2018-09-08T17:43:45.541Z,7.77
2018-09-08T17:46:18.798Z,8.65
2018-09-08T17:48:52.086Z,9.03
2018-09-08T17:51:25.430Z,7.60
2018-09-08T17:53:58.575Z,7.55
2018-09-08T17:56:31.944Z,7.10
2018-09-08T17:59:05.319Z,8.13
2018-09-08T18:01:38.785Z,8.73
2018-09-08T18:04:12.037Z,10.53
2018-09-08T18:06:45.227Z,10.10
2018-09-08T18:09:18.659Z,6.47
2018-09-08T18:11:53.198Z,7.47
2018-09-08T18:14:26.633Z,6.35
2018-09-08T18:16:59.810Z,10.78
2018-09-08T18:19:32.850Z,8.65
2018-09-08T18:22:06.125Z,6.05
2018-09-08T18:24:39.099Z,6.70
2018-09-08T18:27:12.399Z,11.50
2018-09-08T18:29:45.506Z,7.25
2018-09-08T18:32:18.697Z,6.58
2018-09-08T18:34:51.457Z,7.35
2018-09-08T18:37:24.740Z,16.62
2018-09-08T18:39:57.852Z,6.90
2018-09-08T18:42:31.013Z,8.10
2018-09-08T18:45:04.320Z,17.67
2018-09-08T18:47:37.709Z,8.95
2018-09-08T18:50:11.379Z,7.50
2018-09-08T18:52:44.858Z,6.70
2018-09-08T18:55:18.025Z,8.55
2018-09-08T18:57:51.034Z,8.08
2018-09-08T19:00:24.349Z,5.90
2018-09-08T19:02:57.433Z,9.53
2018-09-08T19:05:30.345Z,43.05
2018-09-08T19:23:35.894Z,10.60
2018-09-08T19:26:09.174Z,9.10
2018-09-08T19:32:36.438Z,11.47
2018-09-08T19:35:14.244Z,13.23
2018-09-08T19:37:47.674Z,9.20
2018-09-08T19:40:25.776Z,8.10
2018-09-08T19:43:01.205Z,9.70
2018-09-08T19:45:36.643Z,12.40
2018-09-08T19:48:13.161Z,10.27
2018-09-08T19:50:46.932Z,13.22
2018-09-08T19:53:24.686Z,16.13
2018-09-08T19:55:58.145Z,19.37
2018-09-08T19:58:36.061Z,18.00
2018-09-08T20:01:09.924Z,12.07
2018-09-08T20:03:43.705Z,9.97
2018-09-08T20:06:17.570Z,10.57
2018-09-08T20:08:50.903Z,9.00
2018-09-08T20:11:24.550Z,11.53
2018-09-08T20:13:59.063Z,12.93
2018-09-08T20:18:01.028Z,12.00
2018-09-08T20:20:34.259Z,11.03
2018-09-08T20:23:07.584Z,13.93
2018-09-08T20:25:41.885Z,11.93
2018-09-08T20:28:15.162Z,11.00
2018-09-08T20:30:48.190Z,13.20
2018-09-08T20:33:21.670Z,14.33
2018-09-08T20:35:54.792Z,15.73
2018-09-08T20:38:27.809Z,13.65
2018-09-08T20:41:01.187Z,12.93
2018-09-08T20:43:34.382Z,15.20
2018-09-08T20:46:07.492Z,14.33
2018-09-08T20:48:40.901Z,15.87
2018-09-08T20:51:14.574Z,18.40
2018-09-08T20:53:48.127Z,17.40
2018-09-08T20:56:21.804Z,18.20
2018-09-08T20:58:56.014Z,21.53
2018-09-08T21:01:29.850Z,19.93
2018-09-08T21:04:03.190Z,21.30
2018-09-08T21:06:36.697Z,26.42
2018-09-08T21:09:10.459Z,23.23
2018-09-08T21:11:43.746Z,16.70
2018-09-08T21:14:17.086Z,17.90
2018-09-08T21:16:50.242Z,17.20
2018-09-08T21:19:23.652Z,24.53
2018-09-08T21:21:56.811Z,28.50
2018-09-08T21:24:29.776Z,29.90
2018-09-08T21:28:31.662Z,38.17
2018-09-08T21:31:04.716Z,25.68
2018-09-08T21:33:37.869Z,26.03
2018-09-08T21:36:10.757Z,31.33
2018-09-08T21:38:44.727Z,30.60
2018-09-08T21:41:18.315Z,28.93
2018-09-08T21:43:51.560Z,32.50
2018-09-08T21:46:24.377Z,33.00
2018-09-08T21:48:57.403Z,29.70
2018-09-08T21:51:30.458Z,34.43
2018-09-08T21:54:03.862Z,32.63
2018-09-08T21:56:36.900Z,37.43
2018-09-08T21:59:09.854Z,33.97
2018-09-08T22:01:44.107Z,34.10
2018-09-08T22:04:17.134Z,29.80
2018-09-08T22:06:50.272Z,33.07
2018-09-08T22:09:23.721Z,31.63
2018-09-08T22:11:56.670Z,32.30
2018-09-08T22:14:30.071Z,31.50
2018-09-08T22:17:03.253Z,33.10
2018-09-08T22:19:36.485Z,28.50
2018-09-08T22:22:09.738Z,30.50
2018-09-08T22:24:50.110Z,28.90
2018-09-08T22:30:18.255Z,29.47
2018-09-08T22:32:55.971Z,28.77
2018-09-08T22:35:29.471Z,29.17
2018-09-08T22:38:02.778Z,34.03
2018-09-08T22:40:37.009Z,27.20
2018-09-08T22:43:10.457Z,29.00
2018-09-08T22:45:43.479Z,29.40
2018-09-08T22:48:16.541Z,28.75
2018-09-08T22:50:50.763Z,26.50
2018-09-08T22:53:23.955Z,28.03
2018-09-08T22:55:56.952Z,31.05
2018-09-08T22:58:30.119Z,28.40
2018-09-08T23:01:02.951Z,26.07
2018-09-08T23:03:36.060Z,27.43
2018-09-08T23:06:09.066Z,27.87
2018-09-08T23:08:42.078Z,28.73
2018-09-08T23:11:14.946Z,25.77
2018-09-08T23:13:48.097Z,31.20
2018-09-08T23:16:22.007Z,31.48
2018-09-08T23:18:55.220Z,27.37
2018-09-08T23:21:28.121Z,27.97
2018-09-08T23:24:02.567Z,33.13
2018-09-08T23:26:35.574Z,28.20
2018-09-08T23:29:08.846Z,26.50
2018-09-08T23:31:47.760Z,25.67
2018-09-08T23:34:21.527Z,28.07
2018-09-08T23:36:55.761Z,30.33
2018-09-08T23:39:30.536Z,35.65
2018-09-08T23:42:03.878Z,29.20
2018-09-08T23:44:37.073Z,28.27
2018-09-08T23:47:10.310Z,28.57
2018-09-08T23:49:44.113Z,28.67
2018-09-08T23:52:17.352Z,27.50
2018-09-08T23:54:50.386Z,29.42
2018-09-08T23:57:23.614Z,26.43
2018-09-08T23:59:56.690Z,26.13
